LECO/LCG METAR and TAF weather

Enter ICAO airport designator
Station Type Date Time Source
LECO METAR 2024/07/13 02:00 UTC NOAA

LECO 130200Z AUTO 01003KT 320V060 CAVOK 14/11 Q1016


Station Type Date Time Source
LECO Decoded METAR 2024/07/13 02:00 UTC NOAA

La Coruna / Alvedro, Spain (LECO) 43-18N 008-23W 103M
Jul 12, 2024 - 10:00 PM EDT / 2024.07.13 0200 UTC
Wind: from the N (010 degrees) at 3 MPH (3 KT) (direction variable):0
Visibility: greater than 7 mile(s):0
Temperature: 57 F (14 C)
Dew Point: 51 F (11 C)
Relative Humidity: 82%
Pressure (altimeter): 30.00 in. Hg (1016 hPa)
ob: LECO 130200Z AUTO 01003KT 320V060 CAVOK 14/11 Q1016
cycle: 2

Station Type Date Time Source
LECO TAF 2024/07/13 03:27 UTC NOAA